sensor_id;sensor_type;location;lat;lon;timestamp;P1;durP1;ratioP1;P2;durP2;ratioP2
15285;SDS011;7744;52.172;10.668;2022-12-20T00:00:15;7.83;;;5.77;;
15285;SDS011;7744;52.172;10.668;2022-12-20T00:02:41;8.00;;;6.10;;
15285;SDS011;7744;52.172;10.668;2022-12-20T00:05:07;8.43;;;5.83;;
15285;SDS011;7744;52.172;10.668;2022-12-20T00:07:33;9.10;;;6.40;;
15285;SDS011;7744;52.172;10.668;2022-12-20T00:09:58;8.83;;;6.40;;
15285;SDS011;7744;52.172;10.668;2022-12-20T00:12:24;9.10;;;6.00;;
15285;SDS011;7744;52.172;10.668;2022-12-20T00:14:49;8.17;;;6.47;;
15285;SDS011;7744;52.172;10.668;2022-12-20T00:17:15;7.93;;;5.87;;
15285;SDS011;7744;52.172;10.668;2022-12-20T00:19:42;8.03;;;6.57;;
15285;SDS011;7744;52.172;10.668;2022-12-20T00:22:08;7.57;;;6.30;;
15285;SDS011;7744;52.172;10.668;2022-12-20T00:24:34;7.90;;;6.50;;
15285;SDS011;7744;52.172;10.668;2022-12-20T00:27:00;8.93;;;6.83;;
15285;SDS011;7744;52.172;10.668;2022-12-20T00:29:25;9.10;;;6.80;;
15285;SDS011;7744;52.172;10.668;2022-12-20T00:31:51;8.73;;;6.43;;
15285;SDS011;7744;52.172;10.668;2022-12-20T00:34:17;9.50;;;6.50;;
15285;SDS011;7744;52.172;10.668;2022-12-20T00:36:42;7.97;;;6.23;;
15285;SDS011;7744;52.172;10.668;2022-12-20T00:39:08;10.50;;;6.80;;
15285;SDS011;7744;52.172;10.668;2022-12-20T00:41:34;8.73;;;6.87;;
15285;SDS011;7744;52.172;10.668;2022-12-20T00:44:01;8.13;;;6.83;;
15285;SDS011;7744;52.172;10.668;2022-12-20T00:46:28;8.33;;;5.93;;
15285;SDS011;7744;52.172;10.668;2022-12-20T00:48:55;9.03;;;6.47;;
15285;SDS011;7744;52.172;10.668;2022-12-20T00:51:22;10.43;;;6.07;;
15285;SDS011;7744;52.172;10.668;2022-12-20T00:53:52;9.47;;;6.87;;
15285;SDS011;7744;52.172;10.668;2022-12-20T00:56:19;7.10;;;6.33;;
15285;SDS011;7744;52.172;10.668;2022-12-20T00:58:45;9.17;;;6.43;;
15285;SDS011;7744;52.172;10.668;2022-12-20T01:01:18;7.57;;;6.40;;
15285;SDS011;7744;52.172;10.668;2022-12-20T01:03:47;8.03;;;6.27;;
15285;SDS011;7744;52.172;10.668;2022-12-20T01:06:13;7.53;;;6.03;;
15285;SDS011;7744;52.172;10.668;2022-12-20T01:08:38;9.07;;;6.20;;
15285;SDS011;7744;52.172;10.668;2022-12-20T01:13:36;8.30;;;5.90;;
15285;SDS011;7744;52.172;10.668;2022-12-20T01:16:07;7.07;;;5.63;;
15285;SDS011;7744;52.172;10.668;2022-12-20T01:18:41;9.37;;;5.47;;
15285;SDS011;7744;52.172;10.668;2022-12-20T01:21:08;8.17;;;5.80;;
15285;SDS011;7744;52.172;10.668;2022-12-20T01:23:36;9.53;;;6.13;;
15285;SDS011;7744;52.172;10.668;2022-12-20T01:26:02;9.27;;;5.80;;
15285;SDS011;7744;52.172;10.668;2022-12-20T01:28:29;7.23;;;5.83;;
15285;SDS011;7744;52.172;10.668;2022-12-20T01:30:57;7.23;;;5.43;;
15285;SDS011;7744;52.172;10.668;2022-12-20T01:33:22;7.67;;;5.80;;
15285;SDS011;7744;52.172;10.668;2022-12-20T01:35:58;7.43;;;5.10;;
15285;SDS011;7744;52.172;10.668;2022-12-20T01:38:26;6.63;;;5.50;;
15285;SDS011;7744;52.172;10.668;2022-12-20T01:40:52;6.50;;;5.50;;
15285;SDS011;7744;52.172;10.668;2022-12-20T01:43:19;7.43;;;5.63;;
15285;SDS011;7744;52.172;10.668;2022-12-20T01:45:45;8.27;;;5.83;;
15285;SDS011;7744;52.172;10.668;2022-12-20T01:48:12;10.20;;;5.97;;
15285;SDS011;7744;52.172;10.668;2022-12-20T01:50:40;8.70;;;5.50;;
15285;SDS011;7744;52.172;10.668;2022-12-20T01:53:06;7.17;;;6.00;;
15285;SDS011;7744;52.172;10.668;2022-12-20T01:55:32;7.67;;;5.93;;
15285;SDS011;7744;52.172;10.668;2022-12-20T01:58:01;9.33;;;6.23;;
15285;SDS011;7744;52.172;10.668;2022-12-20T02:00:30;7.83;;;6.20;;
15285;SDS011;7744;52.172;10.668;2022-12-20T02:02:57;8.13;;;6.10;;
15285;SDS011;7744;52.172;10.668;2022-12-20T02:05:24;9.17;;;5.70;;
15285;SDS011;7744;52.172;10.668;2022-12-20T02:07:51;8.80;;;6.10;;
15285;SDS011;7744;52.172;10.668;2022-12-20T02:10:19;6.77;;;5.63;;
15285;SDS011;7744;52.172;10.668;2022-12-20T02:12:48;5.93;;;5.30;;
15285;SDS011;7744;52.172;10.668;2022-12-20T02:15:29;7.23;;;5.37;;
15285;SDS011;7744;52.172;10.668;2022-12-20T02:23:34;7.90;;;6.40;;
15285;SDS011;7744;52.172;10.668;2022-12-20T02:26:37;7.73;;;6.17;;
15285;SDS011;7744;52.172;10.668;2022-12-20T02:32:25;6.83;;;5.67;;
15285;SDS011;7744;52.172;10.668;2022-12-20T02:34:56;6.80;;;5.80;;
15285;SDS011;7744;52.172;10.668;2022-12-20T02:37:22;6.80;;;5.50;;
15285;SDS011;7744;52.172;10.668;2022-12-20T02:39:48;7.17;;;5.43;;
15285;SDS011;7744;52.172;10.668;2022-12-20T02:42:14;7.10;;;5.63;;
15285;SDS011;7744;52.172;10.668;2022-12-20T02:44:48;8.23;;;6.03;;
15285;SDS011;7744;52.172;10.668;2022-12-20T02:50:27;7.67;;;5.50;;
15285;SDS011;7744;52.172;10.668;2022-12-20T02:52:58;6.80;;;5.40;;
15285;SDS011;7744;52.172;10.668;2022-12-20T02:55:29;7.53;;;6.37;;
15285;SDS011;7744;52.172;10.668;2022-12-20T02:58:04;6.37;;;5.70;;
15285;SDS011;7744;52.172;10.668;2022-12-20T03:00:36;7.37;;;6.00;;
15285;SDS011;7744;52.172;10.668;2022-12-20T03:03:06;8.97;;;6.17;;
15285;SDS011;7744;52.172;10.668;2022-12-20T03:05:47;6.43;;;5.20;;
15285;SDS011;7744;52.172;10.668;2022-12-20T03:08:19;7.03;;;5.57;;
15285;SDS011;7744;52.172;10.668;2022-12-20T03:10:45;8.23;;;5.90;;
15285;SDS011;7744;52.172;10.668;2022-12-20T03:13:11;7.63;;;5.10;;
15285;SDS011;7744;52.172;10.668;2022-12-20T03:15:37;6.33;;;5.53;;
15285;SDS011;7744;52.172;10.668;2022-12-20T03:18:03;6.23;;;5.33;;
15285;SDS011;7744;52.172;10.668;2022-12-20T03:20:29;7.10;;;5.50;;
15285;SDS011;7744;52.172;10.668;2022-12-20T03:22:54;6.97;;;5.30;;
15285;SDS011;7744;52.172;10.668;2022-12-20T03:25:20;5.87;;;4.77;;
15285;SDS011;7744;52.172;10.668;2022-12-20T03:27:46;6.45;;;5.35;;
15285;SDS011;7744;52.172;10.668;2022-12-20T03:30:12;6.87;;;4.77;;
15285;SDS011;7744;52.172;10.668;2022-12-20T03:32:38;7.00;;;5.27;;
15285;SDS011;7744;52.172;10.668;2022-12-20T03:35:04;4.97;;;4.47;;
15285;SDS011;7744;52.172;10.668;2022-12-20T03:37:29;6.20;;;4.97;;
15285;SDS011;7744;52.172;10.668;2022-12-20T03:39:55;5.83;;;4.90;;
15285;SDS011;7744;52.172;10.668;2022-12-20T03:42:21;6.60;;;5.10;;
15285;SDS011;7744;52.172;10.668;2022-12-20T03:44:46;5.67;;;4.80;;
15285;SDS011;7744;52.172;10.668;2022-12-20T03:47:12;5.67;;;5.07;;
15285;SDS011;7744;52.172;10.668;2022-12-20T03:49:38;5.83;;;4.70;;
15285;SDS011;7744;52.172;10.668;2022-12-20T03:52:03;6.73;;;4.67;;
15285;SDS011;7744;52.172;10.668;2022-12-20T03:54:29;6.10;;;4.73;;
15285;SDS011;7744;52.172;10.668;2022-12-20T03:56:55;6.97;;;4.90;;
15285;SDS011;7744;52.172;10.668;2022-12-20T03:59:20;6.07;;;4.77;;
15285;SDS011;7744;52.172;10.668;2022-12-20T04:01:46;6.07;;;4.83;;
15285;SDS011;7744;52.172;10.668;2022-12-20T04:04:12;5.33;;;4.83;;
15285;SDS011;7744;52.172;10.668;2022-12-20T04:06:39;6.10;;;4.90;;
15285;SDS011;7744;52.172;10.668;2022-12-20T04:09:05;6.87;;;5.13;;
15285;SDS011;7744;52.172;10.668;2022-12-20T04:11:31;4.70;;;4.20;;
15285;SDS011;7744;52.172;10.668;2022-12-20T04:13:57;6.80;;;5.00;;
15285;SDS011;7744;52.172;10.668;2022-12-20T04:16:23;7.07;;;4.90;;
15285;SDS011;7744;52.172;10.668;2022-12-20T04:18:51;9.23;;;5.83;;
15285;SDS011;7744;52.172;10.668;2022-12-20T04:21:21;8.50;;;5.77;;
15285;SDS011;7744;52.172;10.668;2022-12-20T04:23:51;6.90;;;4.93;;
15285;SDS011;7744;52.172;10.668;2022-12-20T04:26:17;5.27;;;4.43;;
15285;SDS011;7744;52.172;10.668;2022-12-20T04:28:43;5.83;;;4.87;;
15285;SDS011;7744;52.172;10.668;2022-12-20T04:31:09;5.30;;;4.50;;
15285;SDS011;7744;52.172;10.668;2022-12-20T04:33:35;5.77;;;4.43;;
15285;SDS011;7744;52.172;10.668;2022-12-20T04:36:01;5.50;;;4.37;;
15285;SDS011;7744;52.172;10.668;2022-12-20T04:38:27;5.33;;;4.23;;
15285;SDS011;7744;52.172;10.668;2022-12-20T04:40:53;5.77;;;4.43;;
15285;SDS011;7744;52.172;10.668;2022-12-20T04:43:20;4.80;;;3.60;;
15285;SDS011;7744;52.172;10.668;2022-12-20T04:45:47;4.90;;;3.73;;
15285;SDS011;7744;52.172;10.668;2022-12-20T04:48:14;4.33;;;3.77;;
15285;SDS011;7744;52.172;10.668;2022-12-20T04:50:40;6.27;;;4.50;;
15285;SDS011;7744;52.172;10.668;2022-12-20T04:53:07;7.63;;;4.63;;
15285;SDS011;7744;52.172;10.668;2022-12-20T04:55:53;5.67;;;4.37;;
15285;SDS011;7744;52.172;10.668;2022-12-20T04:58:19;6.53;;;4.47;;
15285;SDS011;7744;52.172;10.668;2022-12-20T05:00:44;5.80;;;4.40;;
15285;SDS011;7744;52.172;10.668;2022-12-20T05:03:10;5.03;;;4.30;;
15285;SDS011;7744;52.172;10.668;2022-12-20T05:05:35;7.57;;;5.10;;
15285;SDS011;7744;52.172;10.668;2022-12-20T05:08:01;7.20;;;5.27;;
15285;SDS011;7744;52.172;10.668;2022-12-20T05:10:26;6.73;;;5.00;;
15285;SDS011;7744;52.172;10.668;2022-12-20T05:12:52;6.93;;;5.40;;
15285;SDS011;7744;52.172;10.668;2022-12-20T05:15:18;6.40;;;4.87;;
15285;SDS011;7744;52.172;10.668;2022-12-20T05:17:43;6.07;;;4.43;;
15285;SDS011;7744;52.172;10.668;2022-12-20T05:20:09;5.37;;;4.27;;
15285;SDS011;7744;52.172;10.668;2022-12-20T05:22:35;7.13;;;4.60;;
15285;SDS011;7744;52.172;10.668;2022-12-20T05:25:19;7.07;;;4.90;;
15285;SDS011;7744;52.172;10.668;2022-12-20T05:28:03;5.63;;;4.53;;
15285;SDS011;7744;52.172;10.668;2022-12-20T05:30:29;6.57;;;4.70;;
15285;SDS011;7744;52.172;10.668;2022-12-20T05:32:54;5.00;;;4.40;;
15285;SDS011;7744;52.172;10.668;2022-12-20T05:35:20;6.73;;;4.63;;
15285;SDS011;7744;52.172;10.668;2022-12-20T05:37:46;5.37;;;4.17;;
15285;SDS011;7744;52.172;10.668;2022-12-20T05:40:11;6.23;;;4.67;;
15285;SDS011;7744;52.172;10.668;2022-12-20T05:42:37;7.20;;;4.60;;
15285;SDS011;7744;52.172;10.668;2022-12-20T05:45:03;5.80;;;4.40;;
15285;SDS011;7744;52.172;10.668;2022-12-20T05:47:29;7.90;;;4.80;;
15285;SDS011;7744;52.172;10.668;2022-12-20T05:49:58;5.27;;;4.67;;
15285;SDS011;7744;52.172;10.668;2022-12-20T05:52:24;4.73;;;4.10;;
15285;SDS011;7744;52.172;10.668;2022-12-20T05:54:49;5.73;;;4.37;;
15285;SDS011;7744;52.172;10.668;2022-12-20T05:57:15;5.80;;;4.53;;
15285;SDS011;7744;52.172;10.668;2022-12-20T05:59:41;5.23;;;4.17;;
15285;SDS011;7744;52.172;10.668;2022-12-20T06:02:07;6.23;;;4.40;;
15285;SDS011;7744;52.172;10.668;2022-12-20T06:04:35;8.63;;;5.40;;
15285;SDS011;7744;52.172;10.668;2022-12-20T06:07:01;7.60;;;5.10;;
15285;SDS011;7744;52.172;10.668;2022-12-20T06:09:27;7.27;;;5.60;;
15285;SDS011;7744;52.172;10.668;2022-12-20T06:11:54;6.57;;;4.73;;
15285;SDS011;7744;52.172;10.668;2022-12-20T06:14:19;8.20;;;5.17;;
15285;SDS011;7744;52.172;10.668;2022-12-20T06:16:45;8.60;;;5.23;;
15285;SDS011;7744;52.172;10.668;2022-12-20T06:19:11;5.60;;;4.60;;
15285;SDS011;7744;52.172;10.668;2022-12-20T06:21:38;6.53;;;4.87;;
15285;SDS011;7744;52.172;10.668;2022-12-20T06:24:04;5.93;;;5.20;;
15285;SDS011;7744;52.172;10.668;2022-12-20T06:26:30;7.07;;;4.57;;
15285;SDS011;7744;52.172;10.668;2022-12-20T06:29:00;7.63;;;4.60;;
15285;SDS011;7744;52.172;10.668;2022-12-20T06:31:31;5.30;;;4.27;;
15285;SDS011;7744;52.172;10.668;2022-12-20T06:33:57;6.67;;;4.97;;
15285;SDS011;7744;52.172;10.668;2022-12-20T06:36:23;6.37;;;4.80;;
15285;SDS011;7744;52.172;10.668;2022-12-20T06:38:48;6.27;;;4.60;;
15285;SDS011;7744;52.172;10.668;2022-12-20T06:41:14;5.63;;;4.53;;
15285;SDS011;7744;52.172;10.668;2022-12-20T06:43:40;5.90;;;5.00;;
15285;SDS011;7744;52.172;10.668;2022-12-20T06:46:05;6.27;;;4.47;;
15285;SDS011;7744;52.172;10.668;2022-12-20T06:48:31;7.33;;;5.20;;
15285;SDS011;7744;52.172;10.668;2022-12-20T06:50:57;9.20;;;5.30;;
15285;SDS011;7744;52.172;10.668;2022-12-20T06:53:22;5.70;;;4.47;;
15285;SDS011;7744;52.172;10.668;2022-12-20T06:55:48;6.87;;;4.80;;
15285;SDS011;7744;52.172;10.668;2022-12-20T06:58:14;5.50;;;4.60;;
15285;SDS011;7744;52.172;10.668;2022-12-20T07:00:41;5.23;;;3.73;;
15285;SDS011;7744;52.172;10.668;2022-12-20T07:03:07;4.60;;;4.10;;
15285;SDS011;7744;52.172;10.668;2022-12-20T07:05:32;13.00;;;4.67;;
15285;SDS011;7744;52.172;10.668;2022-12-20T07:07:58;4.87;;;4.33;;
15285;SDS011;7744;52.172;10.668;2022-12-20T07:10:23;6.43;;;4.33;;
15285;SDS011;7744;52.172;10.668;2022-12-20T07:12:50;6.63;;;4.37;;
15285;SDS011;7744;52.172;10.668;2022-12-20T07:15:16;5.13;;;4.63;;
15285;SDS011;7744;52.172;10.668;2022-12-20T07:17:42;5.70;;;4.60;;
15285;SDS011;7744;52.172;10.668;2022-12-20T07:20:08;5.37;;;4.50;;
15285;SDS011;7744;52.172;10.668;2022-12-20T07:22:34;5.03;;;4.47;;
15285;SDS011;7744;52.172;10.668;2022-12-20T07:25:00;4.93;;;4.43;;
15285;SDS011;7744;52.172;10.668;2022-12-20T07:27:25;6.33;;;4.67;;
15285;SDS011;7744;52.172;10.668;2022-12-20T07:29:51;4.57;;;3.97;;
15285;SDS011;7744;52.172;10.668;2022-12-20T07:32:16;6.53;;;4.10;;
15285;SDS011;7744;52.172;10.668;2022-12-20T07:34:42;5.50;;;4.07;;
15285;SDS011;7744;52.172;10.668;2022-12-20T07:37:08;6.20;;;5.07;;
15285;SDS011;7744;52.172;10.668;2022-12-20T07:39:33;5.33;;;4.47;;
15285;SDS011;7744;52.172;10.668;2022-12-20T07:41:59;5.27;;;4.07;;
15285;SDS011;7744;52.172;10.668;2022-12-20T07:44:25;5.63;;;4.00;;
15285;SDS011;7744;52.172;10.668;2022-12-20T07:46:50;5.63;;;3.87;;
15285;SDS011;7744;52.172;10.668;2022-12-20T07:49:16;5.03;;;3.70;;
15285;SDS011;7744;52.172;10.668;2022-12-20T07:51:46;6.43;;;4.00;;
15285;SDS011;7744;52.172;10.668;2022-12-20T07:54:16;4.50;;;3.37;;
15285;SDS011;7744;52.172;10.668;2022-12-20T07:56:59;5.83;;;4.30;;
15285;SDS011;7744;52.172;10.668;2022-12-20T07:59:38;5.53;;;3.80;;
15285;SDS011;7744;52.172;10.668;2022-12-20T08:02:10;20.97;;;13.50;;
15285;SDS011;7744;52.172;10.668;2022-12-20T08:04:40;9.23;;;6.70;;
15285;SDS011;7744;52.172;10.668;2022-12-20T08:07:06;5.80;;;3.93;;
15285;SDS011;7744;52.172;10.668;2022-12-20T08:09:34;5.37;;;4.17;;
15285;SDS011;7744;52.172;10.668;2022-12-20T08:12:04;7.07;;;4.33;;
15285;SDS011;7744;52.172;10.668;2022-12-20T08:14:31;5.53;;;4.50;;
15285;SDS011;7744;52.172;10.668;2022-12-20T08:16:57;6.07;;;4.67;;
15285;SDS011;7744;52.172;10.668;2022-12-20T08:19:23;5.03;;;3.90;;
15285;SDS011;7744;52.172;10.668;2022-12-20T08:21:49;5.03;;;4.10;;
15285;SDS011;7744;52.172;10.668;2022-12-20T08:24:15;4.70;;;4.20;;
15285;SDS011;7744;52.172;10.668;2022-12-20T08:26:41;5.17;;;4.03;;
15285;SDS011;7744;52.172;10.668;2022-12-20T08:29:07;5.23;;;3.63;;
15285;SDS011;7744;52.172;10.668;2022-12-20T08:31:36;6.47;;;3.93;;
15285;SDS011;7744;52.172;10.668;2022-12-20T08:34:08;4.33;;;3.80;;
15285;SDS011;7744;52.172;10.668;2022-12-20T08:36:33;4.97;;;4.20;;
15285;SDS011;7744;52.172;10.668;2022-12-20T08:39:03;4.77;;;3.53;;
15285;SDS011;7744;52.172;10.668;2022-12-20T08:41:29;4.43;;;3.50;;
15285;SDS011;7744;52.172;10.668;2022-12-20T08:43:54;5.10;;;4.10;;
15285;SDS011;7744;52.172;10.668;2022-12-20T08:46:20;5.07;;;3.30;;
15285;SDS011;7744;52.172;10.668;2022-12-20T08:48:46;4.17;;;3.33;;
15285;SDS011;7744;52.172;10.668;2022-12-20T08:51:11;4.20;;;3.33;;
15285;SDS011;7744;52.172;10.668;2022-12-20T08:53:37;5.03;;;4.20;;
15285;SDS011;7744;52.172;10.668;2022-12-20T08:56:07;6.03;;;3.40;;
15285;SDS011;7744;52.172;10.668;2022-12-20T08:58:34;4.80;;;3.70;;
15285;SDS011;7744;52.172;10.668;2022-12-20T09:01:02;5.70;;;5.00;;
15285;SDS011;7744;52.172;10.668;2022-12-20T09:03:30;4.50;;;3.33;;
15285;SDS011;7744;52.172;10.668;2022-12-20T09:05:57;5.87;;;3.83;;
15285;SDS011;7744;52.172;10.668;2022-12-20T09:08:23;4.83;;;3.43;;
15285;SDS011;7744;52.172;10.668;2022-12-20T09:10:49;4.63;;;3.70;;
15285;SDS011;7744;52.172;10.668;2022-12-20T09:13:16;6.17;;;3.50;;
15285;SDS011;7744;52.172;10.668;2022-12-20T09:15:41;6.03;;;3.40;;
15285;SDS011;7744;52.172;10.668;2022-12-20T09:18:09;3.93;;;3.47;;
15285;SDS011;7744;52.172;10.668;2022-12-20T09:20:34;5.50;;;3.40;;
15285;SDS011;7744;52.172;10.668;2022-12-20T09:23:00;4.23;;;3.70;;
15285;SDS011;7744;52.172;10.668;2022-12-20T09:25:26;4.30;;;3.40;;
15285;SDS011;7744;52.172;10.668;2022-12-20T09:27:52;4.23;;;3.27;;
15285;SDS011;7744;52.172;10.668;2022-12-20T09:30:21;5.80;;;3.00;;
15285;SDS011;7744;52.172;10.668;2022-12-20T09:32:47;4.10;;;3.43;;
15285;SDS011;7744;52.172;10.668;2022-12-20T09:35:13;4.13;;;3.30;;
15285;SDS011;7744;52.172;10.668;2022-12-20T09:37:38;3.50;;;3.20;;
15285;SDS011;7744;52.172;10.668;2022-12-20T09:40:05;3.57;;;3.17;;
15285;SDS011;7744;52.172;10.668;2022-12-20T09:42:34;4.70;;;3.40;;
15285;SDS011;7744;52.172;10.668;2022-12-20T09:45:07;3.63;;;3.33;;
15285;SDS011;7744;52.172;10.668;2022-12-20T09:47:36;4.67;;;3.40;;
15285;SDS011;7744;52.172;10.668;2022-12-20T09:50:02;4.47;;;3.50;;
15285;SDS011;7744;52.172;10.668;2022-12-20T09:52:34;4.23;;;3.50;;
15285;SDS011;7744;52.172;10.668;2022-12-20T09:55:24;5.57;;;3.40;;
15285;SDS011;7744;52.172;10.668;2022-12-20T10:00:34;6.00;;;3.33;;
15285;SDS011;7744;52.172;10.668;2022-12-20T10:03:03;4.20;;;3.27;;
15285;SDS011;7744;52.172;10.668;2022-12-20T10:05:34;4.70;;;3.57;;
15285;SDS011;7744;52.172;10.668;2022-12-20T10:08:23;5.13;;;3.10;;
15285;SDS011;7744;52.172;10.668;2022-12-20T10:10:53;4.93;;;3.30;;
15285;SDS011;7744;52.172;10.668;2022-12-20T10:16:28;3.53;;;3.03;;
15285;SDS011;7744;52.172;10.668;2022-12-20T10:24:35;3.57;;;2.97;;
15285;SDS011;7744;52.172;10.668;2022-12-20T10:27:13;4.53;;;2.97;;
15285;SDS011;7744;52.172;10.668;2022-12-20T10:29:41;3.40;;;3.00;;
15285;SDS011;7744;52.172;10.668;2022-12-20T10:32:12;4.77;;;3.20;;
15285;SDS011;7744;52.172;10.668;2022-12-20T10:34:51;3.70;;;2.87;;
15285;SDS011;7744;52.172;10.668;2022-12-20T10:37:23;3.67;;;3.00;;
15285;SDS011;7744;52.172;10.668;2022-12-20T10:39:50;4.13;;;2.83;;
15285;SDS011;7744;52.172;10.668;2022-12-20T10:42:29;3.80;;;3.10;;
15285;SDS011;7744;52.172;10.668;2022-12-20T10:45:03;4.17;;;3.53;;
15285;SDS011;7744;52.172;10.668;2022-12-20T10:47:50;6.87;;;3.27;;
15285;SDS011;7744;52.172;10.668;2022-12-20T10:50:23;4.87;;;3.30;;
15285;SDS011;7744;52.172;10.668;2022-12-20T10:58:04;2.97;;;2.67;;
15285;SDS011;7744;52.172;10.668;2022-12-20T11:00:42;3.87;;;2.60;;
15285;SDS011;7744;52.172;10.668;2022-12-20T11:03:10;5.87;;;3.50;;
15285;SDS011;7744;52.172;10.668;2022-12-20T11:05:36;3.87;;;3.23;;
15285;SDS011;7744;52.172;10.668;2022-12-20T11:08:08;3.87;;;2.70;;
15285;SDS011;7744;52.172;10.668;2022-12-20T11:10:40;3.70;;;2.67;;
15285;SDS011;7744;52.172;10.668;2022-12-20T11:13:17;3.23;;;2.40;;
15285;SDS011;7744;52.172;10.668;2022-12-20T11:15:54;2.73;;;2.27;;
15285;SDS011;7744;52.172;10.668;2022-12-20T11:23:39;2.63;;;2.40;;
15285;SDS011;7744;52.172;10.668;2022-12-20T11:31:50;3.60;;;2.70;;
15285;SDS011;7744;52.172;10.668;2022-12-20T11:37:36;3.53;;;2.30;;
15285;SDS011;7744;52.172;10.668;2022-12-20T11:40:31;2.77;;;2.27;;
15285;SDS011;7744;52.172;10.668;2022-12-20T11:51:45;2.57;;;2.37;;
15285;SDS011;7744;52.172;10.668;2022-12-20T11:54:31;3.37;;;2.30;;
15285;SDS011;7744;52.172;10.668;2022-12-20T11:57:09;3.00;;;2.10;;
15285;SDS011;7744;52.172;10.668;2022-12-20T12:02:11;2.80;;;2.13;;
15285;SDS011;7744;52.172;10.668;2022-12-20T12:04:41;2.60;;;2.10;;
15285;SDS011;7744;52.172;10.668;2022-12-20T12:07:15;3.10;;;2.00;;
15285;SDS011;7744;52.172;10.668;2022-12-20T12:09:48;2.13;;;1.93;;
15285;SDS011;7744;52.172;10.668;2022-12-20T12:15:22;3.37;;;1.97;;
15285;SDS011;7744;52.172;10.668;2022-12-20T12:25:45;2.03;;;1.83;;
15285;SDS011;7744;52.172;10.668;2022-12-20T12:28:11;3.87;;;2.20;;
15285;SDS011;7744;52.172;10.668;2022-12-20T12:30:41;1.60;;;1.50;;
15285;SDS011;7744;52.172;10.668;2022-12-20T12:33:14;3.20;;;1.90;;
15285;SDS011;7744;52.172;10.668;2022-12-20T12:36:35;3.27;;;2.30;;
15285;SDS011;7744;52.172;10.668;2022-12-20T12:44:35;2.90;;;1.93;;
15285;SDS011;7744;52.172;10.668;2022-12-20T12:47:10;2.75;;;2.03;;
15285;SDS011;7744;52.172;10.668;2022-12-20T12:49:45;2.30;;;2.10;;
15285;SDS011;7744;52.172;10.668;2022-12-20T12:52:27;2.63;;;2.00;;
15285;SDS011;7744;52.172;10.668;2022-12-20T13:03:16;3.07;;;2.63;;
15285;SDS011;7744;52.172;10.668;2022-12-20T13:11:29;3.67;;;2.10;;
15285;SDS011;7744;52.172;10.668;2022-12-20T13:16:47;3.93;;;2.90;;
15285;SDS011;7744;52.172;10.668;2022-12-20T13:22:32;2.53;;;1.93;;
15285;SDS011;7744;52.172;10.668;2022-12-20T13:24:57;3.73;;;2.30;;
15285;SDS011;7744;52.172;10.668;2022-12-20T13:32:52;2.83;;;1.80;;
15285;SDS011;7744;52.172;10.668;2022-12-20T13:37:56;2.93;;;2.00;;
15285;SDS011;7744;52.172;10.668;2022-12-20T13:40:32;2.97;;;2.20;;
15285;SDS011;7744;52.172;10.668;2022-12-20T13:43:30;4.67;;;3.07;;
15285;SDS011;7744;52.172;10.668;2022-12-20T13:51:02;3.47;;;2.20;;
15285;SDS011;7744;52.172;10.668;2022-12-20T13:53:29;2.93;;;1.73;;
15285;SDS011;7744;52.172;10.668;2022-12-20T13:55:55;2.93;;;2.30;;
15285;SDS011;7744;52.172;10.668;2022-12-20T13:58:23;2.10;;;1.90;;
15285;SDS011;7744;52.172;10.668;2022-12-20T14:00:51;2.10;;;1.90;;
15285;SDS011;7744;52.172;10.668;2022-12-20T14:03:19;3.37;;;2.20;;
15285;SDS011;7744;52.172;10.668;2022-12-20T14:05:47;3.67;;;2.80;;
15285;SDS011;7744;52.172;10.668;2022-12-20T14:08:20;3.53;;;2.60;;
15285;SDS011;7744;52.172;10.668;2022-12-20T14:10:50;20.50;;;14.40;;
15285;SDS011;7744;52.172;10.668;2022-12-20T14:13:24;2.80;;;2.30;;
15285;SDS011;7744;52.172;10.668;2022-12-20T14:15:51;2.90;;;2.10;;
15285;SDS011;7744;52.172;10.668;2022-12-20T14:18:21;4.10;;;2.30;;
15285;SDS011;7744;52.172;10.668;2022-12-20T14:20:57;5.00;;;2.30;;
15285;SDS011;7744;52.172;10.668;2022-12-20T14:23:27;4.80;;;2.03;;
15285;SDS011;7744;52.172;10.668;2022-12-20T14:26:13;2.20;;;2.00;;
15285;SDS011;7744;52.172;10.668;2022-12-20T14:28:43;5.20;;;2.50;;
15285;SDS011;7744;52.172;10.668;2022-12-20T14:31:26;7.47;;;2.20;;
15285;SDS011;7744;52.172;10.668;2022-12-20T14:34:02;2.47;;;2.00;;
15285;SDS011;7744;52.172;10.668;2022-12-20T14:36:49;6.73;;;2.37;;
15285;SDS011;7744;52.172;10.668;2022-12-20T14:42:39;3.83;;;2.03;;
15285;SDS011;7744;52.172;10.668;2022-12-20T14:47:33;2.30;;;1.90;;
15285;SDS011;7744;52.172;10.668;2022-12-20T14:50:00;2.23;;;2.03;;
15285;SDS011;7744;52.172;10.668;2022-12-20T14:54:59;3.63;;;2.00;;
15285;SDS011;7744;52.172;10.668;2022-12-20T15:08:09;2.70;;;2.40;;
15285;SDS011;7744;52.172;10.668;2022-12-20T15:10:38;4.23;;;2.20;;
15285;SDS011;7744;52.172;10.668;2022-12-20T15:13:12;3.83;;;2.23;;
15285;SDS011;7744;52.172;10.668;2022-12-20T15:15:39;2.20;;;1.93;;
15285;SDS011;7744;52.172;10.668;2022-12-20T15:18:09;3.73;;;2.67;;
15285;SDS011;7744;52.172;10.668;2022-12-20T15:20:40;2.27;;;2.07;;
15285;SDS011;7744;52.172;10.668;2022-12-20T15:23:10;3.03;;;2.10;;
15285;SDS011;7744;52.172;10.668;2022-12-20T15:25:41;3.53;;;2.60;;
15285;SDS011;7744;52.172;10.668;2022-12-20T15:28:14;4.70;;;2.40;;
15285;SDS011;7744;52.172;10.668;2022-12-20T15:30:42;6.37;;;2.77;;
15285;SDS011;7744;52.172;10.668;2022-12-20T15:33:12;3.40;;;2.20;;
15285;SDS011;7744;52.172;10.668;2022-12-20T15:35:46;3.17;;;2.40;;
15285;SDS011;7744;52.172;10.668;2022-12-20T15:38:13;3.53;;;2.47;;
15285;SDS011;7744;52.172;10.668;2022-12-20T15:40:41;4.43;;;2.40;;
15285;SDS011;7744;52.172;10.668;2022-12-20T15:43:11;2.47;;;2.20;;
15285;SDS011;7744;52.172;10.668;2022-12-20T15:45:43;4.87;;;2.80;;
15285;SDS011;7744;52.172;10.668;2022-12-20T15:48:12;5.20;;;2.60;;
15285;SDS011;7744;52.172;10.668;2022-12-20T15:50:44;5.23;;;3.93;;
15285;SDS011;7744;52.172;10.668;2022-12-20T15:53:27;4.87;;;3.00;;
15285;SDS011;7744;52.172;10.668;2022-12-20T15:55:57;3.33;;;2.40;;
15285;SDS011;7744;52.172;10.668;2022-12-20T15:58:24;3.75;;;2.60;;
15285;SDS011;7744;52.172;10.668;2022-12-20T16:00:54;4.27;;;2.63;;
15285;SDS011;7744;52.172;10.668;2022-12-20T16:03:25;4.53;;;2.40;;
15285;SDS011;7744;52.172;10.668;2022-12-20T16:05:55;4.70;;;2.88;;
15285;SDS011;7744;52.172;10.668;2022-12-20T16:08:21;3.33;;;2.37;;
15285;SDS011;7744;52.172;10.668;2022-12-20T16:10:48;3.43;;;2.50;;
15285;SDS011;7744;52.172;10.668;2022-12-20T16:13:16;3.40;;;2.40;;
15285;SDS011;7744;52.172;10.668;2022-12-20T16:15:49;3.07;;;2.43;;
15285;SDS011;7744;52.172;10.668;2022-12-20T16:18:15;5.50;;;2.90;;
15285;SDS011;7744;52.172;10.668;2022-12-20T16:20:42;4.43;;;2.70;;
15285;SDS011;7744;52.172;10.668;2022-12-20T16:23:12;4.10;;;2.80;;
15285;SDS011;7744;52.172;10.668;2022-12-20T16:25:44;5.47;;;2.60;;
15285;SDS011;7744;52.172;10.668;2022-12-20T16:28:10;3.30;;;3.00;;
15285;SDS011;7744;52.172;10.668;2022-12-20T16:30:36;3.80;;;2.90;;
15285;SDS011;7744;52.172;10.668;2022-12-20T16:33:02;4.57;;;3.10;;
15285;SDS011;7744;52.172;10.668;2022-12-20T16:35:32;3.43;;;3.07;;
15285;SDS011;7744;52.172;10.668;2022-12-20T16:38:01;3.47;;;2.50;;
15285;SDS011;7744;52.172;10.668;2022-12-20T16:40:28;5.27;;;2.70;;
15285;SDS011;7744;52.172;10.668;2022-12-20T16:42:57;4.17;;;2.50;;
15285;SDS011;7744;52.172;10.668;2022-12-20T16:45:24;4.87;;;2.60;;
15285;SDS011;7744;52.172;10.668;2022-12-20T16:47:52;3.23;;;2.50;;
15285;SDS011;7744;52.172;10.668;2022-12-20T16:50:18;3.50;;;2.57;;
15285;SDS011;7744;52.172;10.668;2022-12-20T16:52:45;4.40;;;2.90;;
15285;SDS011;7744;52.172;10.668;2022-12-20T16:55:12;4.70;;;2.93;;
15285;SDS011;7744;52.172;10.668;2022-12-20T16:57:42;3.33;;;2.60;;
15285;SDS011;7744;52.172;10.668;2022-12-20T17:00:09;5.97;;;2.77;;
15285;SDS011;7744;52.172;10.668;2022-12-20T17:02:41;3.63;;;2.80;;